Terminal Aerodrome Forecast
Issued by NWS

Home | Current Version | Previous Version | Text Only | Print | Product List | Glossary On
Versions: 1 2 3 4 5 6 7 8 9 10 11 12
000
FTUS45 KRIW 272300
TAFCPR
TAF
KCPR 272331Z 2800/2824 05009KT P6SM FEW250
     FM280300 10011KT P6SM FEW070 SCT150 BKN250
     FM280900 08006KT P6SM SCT120 BKN250
     FM281500 15008KT P6SM SCT100 BKN150
     FM282000 11010G18KT P6SM SCT090 BKN120=

USA.gov is the U.S. government's official web portal to all federal, state and local government web resources and services.